Flight Track Log - Related Links

Times and Time Zones

All times are in EST time to prevent confusion due to time zone crossing. See the N865JM flight status page for this flight to view local times or setup timezone preferences in your user account.

Time Position Orientation Groundspeed Altitude Reporting Facility
EST Latitude Longitude Course Direction KTS MPH feet Rate Location/Type
Fri 10:19:32 AM 26.6328 -81.7017 347° North 300 345 3,700  Level Miami Center
Fri 10:20:32 AM 26.7161 -81.7097 355° North 313 360 6,200 2,650 Climbing Miami Center
Fri 10:21:32 AM 26.8075 -81.7206 354° North 304 350 9,000 2,650 Climbing Miami Center
Fri 10:22:32 AM 26.9011 -81.7314 354° North 319 367 11,500 2,500 Climbing Miami Center
Fri 10:23:32 AM 27.0050 -81.7453 353° North 357 411 14,000 2,350 Climbing Miami Center
Fri 10:24:00 AM 27.1956 -81.7989 347° North  Level FlightAware Approximate
Fri 10:24:32 AM 27.1000 -81.7725 346° North 378 435 16,200  Level Miami Center
Fri 10:25:32 AM 27.2094 -81.8075 344° North 388 447 17,900 1,350 Climbing Miami Center
Fri 10:26:32 AM 27.3333 -81.8503 343° North 407 468 18,900 1,300 Climbing Miami Center
Fri 10:27:32 AM 27.4383 -81.8875 343° North 412 474 20,500 1,550 Climbing Miami Center
Fri 10:28:32 AM 27.5375 -81.9222 343° North 412 474 22,000 1,400 Climbing Miami Center
Fri 10:29:32 AM 27.6467 -81.9622 342° North 407 468 23,300 1,050 Climbing Miami Center
Fri 10:30:32 AM 27.7756 -81.9750 355° North 414 476 24,100 1,100 Climbing Miami Center
Fri 10:31:32 AM 27.8842 -81.9142 26° Northeast 410 472 25,500 1,500 Climbing Miami Center
Fri 10:32:32 AM 27.9872 -81.8294 36° Northeast 416 479 27,100 1,550 Climbing Miami Center
Fri 10:33:32 AM 28.0861 -81.7444 37° Northeast 434 499 28,600 1,500 Climbing Miami Center
Fri 10:34:32 AM 28.1808 -81.6567 39° Northeast 439 505 30,100 1,515 Climbing Miami Center
Fri 10:35:11 AM 28.2497 -81.5942 39° Northeast 445 512 31,100 1,515 Climbing Jacksonville Center
Fri 10:36:11 AM 28.3511 -81.5056 38° Northeast 474 545 32,600 950 Climbing Jacksonville Center
Fri 10:37:11 AM 28.4503 -81.4192 37° Northeast 466 536 33,000 200 Climbing Jacksonville Center
Fri 10:38:11 AM 28.5769 -81.3558 24° Northeast 466 536 33,000  Level Jacksonville Center
Fri 10:39:11 AM 28.7125 -81.3517 North 466 536 33,000  Level Jacksonville Center
Fri 10:40:11 AM 28.8483 -81.3661 355° North 466 536 33,000  Level Jacksonville Center
Fri 10:41:11 AM 28.9819 -81.3806 355° North 473 544 33,000  Level Jacksonville Center
Fri 10:42:11 AM 29.1200 -81.3928 356° North 487 560 33,000  Level Jacksonville Center
Fri 10:43:11 AM 29.2558 -81.4072 355° North 487 560 33,000  Level Jacksonville Center
Fri 10:44:11 AM 29.3936 -81.4147 357° North 487 560 33,000  Level Jacksonville Center
Fri 10:45:11 AM 29.5275 -81.4342 353° North 487 560 33,000  Level Jacksonville Center
Fri 10:46:11 AM 29.6653 -81.4464 356° North 487 560 33,000 -200 Level Jacksonville Center
Fri 10:47:11 AM 29.8033 -81.4611 355° North 487 560 32,600 -700 Descending Jacksonville Center
Fri 10:48:11 AM 29.9392 -81.4736 355° North 487 560 31,600 -1,050 Descending Jacksonville Center
Fri 10:49:11 AM 30.0769 -81.4789 358° North 487 560 30,500 -1,100 Descending Jacksonville Center
Fri 10:50:11 AM 30.2231 -81.4622 North 498 573 29,400 -750 Descending Jacksonville Center
Fri 10:51:11 AM 30.3503 -81.4433 North 509 586 29,000 -200 Descending Jacksonville Center
Fri 10:52:11 AM 30.4897 -81.4244 North 509 586 29,000  Level Jacksonville Center
Fri 10:53:11 AM 30.6294 -81.4078 North 509 586 29,000  Level Jacksonville Center
Fri 10:54:11 AM 30.7692 -81.3889 North 504 580 29,000  Level Jacksonville Center
Fri 10:55:11 AM 30.9089 -81.3719 North 499 574 29,000  Level Jacksonville Center
Fri 10:56:11 AM 31.0486 -81.3528 North 499 574 29,000  Level Jacksonville Center
Fri 10:57:11 AM 31.1903 -81.3333 North 499 574 29,000  Level Jacksonville Center
Fri 10:58:11 AM 31.3300 -81.3142 North 504 580 29,000  Level Jacksonville Center
Fri 10:59:11 AM 31.4822 -81.2944 North 498 573 29,000  Level Jacksonville Center
Fri 11:00:11 AM 31.6072 -81.2753 North 498 573 29,000  Level Jacksonville Center
Fri 11:01:11 AM 31.7614 -81.2556 North 498 573 29,000  Level Jacksonville Center
Fri 11:02:11 AM 31.8886 -81.2408 North 505 581 29,000 -50 Level Jacksonville Center
Fri 11:03:11 AM 32.0261 -81.2189 North 497 572 28,900  Descending Jacksonville Center
Fri 11:04:11 AM 32.1589 -81.1550 22° Northeast 502 578 29,000 50 Climbing Jacksonville Center
Fri 11:05:11 AM 32.2614 -81.0353 45° Northeast 497 572 29,000 -350 Level Jacksonville Center
Fri 11:06:11 AM 32.3636 -80.8906 50° Northeast 499 574 28,300 -850 Descending Jacksonville Center
Fri 11:07:11 AM 32.4392 -80.7806 51° Northeast 494 568 27,300 -700 Descending Jacksonville Center
Fri 11:08:11 AM 32.5247 -80.6553 51° Northeast 488 562 26,900 -150 Descending Jacksonville Center
Fri 11:09:11 AM 32.6100 -80.5300 51° Northeast 483 556 27,000 -350 Climbing Jacksonville Center
Fri 11:10:11 AM 32.6914 -80.4119 51° Northeast 475 547 26,200 -1,100 Descending Jacksonville Center
Fri 11:11:11 AM 32.7703 -80.2936 52° Northeast 470 541 24,800 -1,100 Descending Jacksonville Center
Fri 11:12:11 AM 32.8511 -80.1725 52° Northeast 465 535 24,000 -900 Descending Jacksonville Center
Fri 11:13:11 AM 32.9300 -80.0539 52° Northeast 455 524 23,000 -1,550 Descending Jacksonville Center
Fri 11:14:11 AM 33.0089 -79.9375 51° Northeast 455 524 20,900 -2,300 Descending Jacksonville Center
Fri 11:15:11 AM 33.0725 -79.8089 59° Northeast 455 524 18,400 -2,300 Descending Jacksonville Center
Fri 11:16:11 AM 33.1194 -79.6808 66° East 436 502 16,300 -1,750 Descending Jacksonville Center
Fri 11:17:11 AM 33.1625 -79.5700 65° Northeast 395 455 14,900 -1,400 Descending Jacksonville Center
Fri 11:18:11 AM 33.2072 -79.4494 66° East 385 443 13,500 -1,450 Descending Jacksonville Center
Fri 11:19:11 AM 33.2858 -79.3469 47° Northeast 398 458 12,000 -1,550 Descending Jacksonville Center
Fri 11:20:11 AM 33.3686 -79.2539 43° Northeast 398 458 10,400 -1,700 Descending Jacksonville Center
Fri 11:21:11 AM 33.4475 -79.1661 43° Northeast 398 458 8,600 -1,950 Descending Jacksonville Center
Fri 11:22:11 AM 33.5181 -79.0861 43° Northeast 371 427 6,500 -2,000 Descending Jacksonville Center
Fri 11:23:11 AM 33.5783 -79.0086 47° Northeast 336 387 4,600 -1,250 Descending Jacksonville Center
Fri 11:24:11 AM 33.6369 -78.9436 43° Northeast 301 346 4,000 -450 Descending Jacksonville Center
Fri 11:25:11 AM 33.6869 -78.8767 48° Northeast 278 320 3,700 -900 Descending Jacksonville Center
Fri 11:26:11 AM 33.7372 -78.8169 45° Northeast 265 305 2,200 -1,500 Descending Jacksonville Center
Fri 11:28:00 AM 33.8000 -78.7167 54° Northeast  Level FlightAware Approximate

Login

Don't have an account? Register now (free) for customized features, flight alerts, and more!